sensor_id;sensor_type;location;lat;lon;timestamp;P1;durP1;ratioP1;P2;durP2;ratioP2
32501;SDS011;18952;52.516;13.460;2022-12-05T00:03:56;222.82;;;104.90;;
32501;SDS011;18952;52.516;13.460;2022-12-05T00:06:26;232.35;;;105.53;;
32501;SDS011;18952;52.516;13.460;2022-12-05T00:08:54;255.10;;;106.43;;
32501;SDS011;18952;52.516;13.460;2022-12-05T00:11:26;248.98;;;106.82;;
32501;SDS011;18952;52.516;13.460;2022-12-05T00:13:54;240.45;;;107.60;;
32501;SDS011;18952;52.516;13.460;2022-12-05T00:16:23;232.90;;;103.97;;
32501;SDS011;18952;52.516;13.460;2022-12-05T00:18:52;232.98;;;105.07;;
32501;SDS011;18952;52.516;13.460;2022-12-05T00:21:20;225.60;;;106.00;;
32501;SDS011;18952;52.516;13.460;2022-12-05T00:23:48;223.88;;;105.80;;
32501;SDS011;18952;52.516;13.460;2022-12-05T00:26:16;231.45;;;106.30;;
32501;SDS011;18952;52.516;13.460;2022-12-05T00:28:43;221.25;;;104.63;;
32501;SDS011;18952;52.516;13.460;2022-12-05T00:31:12;243.13;;;106.68;;
32501;SDS011;18952;52.516;13.460;2022-12-05T00:33:47;231.75;;;105.18;;
32501;SDS011;18952;52.516;13.460;2022-12-05T00:36:16;219.07;;;105.40;;
32501;SDS011;18952;52.516;13.460;2022-12-05T00:38:45;237.05;;;108.97;;
32501;SDS011;18952;52.516;13.460;2022-12-05T00:41:13;241.98;;;109.68;;
32501;SDS011;18952;52.516;13.460;2022-12-05T00:43:41;230.60;;;104.70;;
32501;SDS011;18952;52.516;13.460;2022-12-05T00:46:09;218.30;;;106.13;;
32501;SDS011;18952;52.516;13.460;2022-12-05T00:48:39;246.30;;;107.65;;
32501;SDS011;18952;52.516;13.460;2022-12-05T00:53:40;234.95;;;106.13;;
32501;SDS011;18952;52.516;13.460;2022-12-05T00:56:08;228.10;;;107.63;;
32501;SDS011;18952;52.516;13.460;2022-12-05T00:58:37;230.80;;;104.53;;
32501;SDS011;18952;52.516;13.460;2022-12-05T01:01:05;223.18;;;106.65;;
32501;SDS011;18952;52.516;13.460;2022-12-05T01:03:37;218.45;;;105.05;;
32501;SDS011;18952;52.516;13.460;2022-12-05T01:06:04;231.05;;;108.10;;
32501;SDS011;18952;52.516;13.460;2022-12-05T01:08:32;243.25;;;108.65;;
32501;SDS011;18952;52.516;13.460;2022-12-05T01:10:59;212.65;;;104.78;;
32501;SDS011;18952;52.516;13.460;2022-12-05T01:13:27;216.13;;;103.15;;
32501;SDS011;18952;52.516;13.460;2022-12-05T01:15:55;243.32;;;107.15;;
32501;SDS011;18952;52.516;13.460;2022-12-05T01:18:22;215.30;;;103.38;;
32501;SDS011;18952;52.516;13.460;2022-12-05T01:20:50;221.05;;;106.45;;
32501;SDS011;18952;52.516;13.460;2022-12-05T01:23:17;228.52;;;106.53;;
32501;SDS011;18952;52.516;13.460;2022-12-05T01:25:45;221.13;;;105.50;;
32501;SDS011;18952;52.516;13.460;2022-12-05T01:28:13;246.20;;;107.13;;
32501;SDS011;18952;52.516;13.460;2022-12-05T01:30:42;242.15;;;108.07;;
32501;SDS011;18952;52.516;13.460;2022-12-05T01:33:10;249.73;;;110.03;;
32501;SDS011;18952;52.516;13.460;2022-12-05T01:35:38;247.50;;;109.18;;
32501;SDS011;18952;52.516;13.460;2022-12-05T01:38:05;246.98;;;108.05;;
32501;SDS011;18952;52.516;13.460;2022-12-05T01:40:33;236.85;;;108.03;;
32501;SDS011;18952;52.516;13.460;2022-12-05T01:43:00;233.50;;;107.72;;
32501;SDS011;18952;52.516;13.460;2022-12-05T01:45:32;227.65;;;106.65;;
32501;SDS011;18952;52.516;13.460;2022-12-05T01:48:02;223.85;;;105.65;;
32501;SDS011;18952;52.516;13.460;2022-12-05T01:50:33;232.88;;;103.65;;
32501;SDS011;18952;52.516;13.460;2022-12-05T01:53:01;222.30;;;105.65;;
32501;SDS011;18952;52.516;13.460;2022-12-05T01:55:29;223.52;;;106.65;;
32501;SDS011;18952;52.516;13.460;2022-12-05T01:57:56;237.52;;;108.63;;
32501;SDS011;18952;52.516;13.460;2022-12-05T02:00:24;217.73;;;102.38;;
32501;SDS011;18952;52.516;13.460;2022-12-05T02:02:52;218.63;;;104.65;;
32501;SDS011;18952;52.516;13.460;2022-12-05T02:05:24;255.13;;;108.43;;
32501;SDS011;18952;52.516;13.460;2022-12-05T02:07:53;250.25;;;109.47;;
32501;SDS011;18952;52.516;13.460;2022-12-05T02:10:20;234.30;;;107.78;;
32501;SDS011;18952;52.516;13.460;2022-12-05T02:12:48;225.98;;;105.88;;
32501;SDS011;18952;52.516;13.460;2022-12-05T02:15:35;238.15;;;107.05;;
32501;SDS011;18952;52.516;13.460;2022-12-05T02:18:16;261.63;;;111.32;;
32501;SDS011;18952;52.516;13.460;2022-12-05T02:29:25;239.80;;;106.00;;
32501;SDS011;18952;52.516;13.460;2022-12-05T02:32:16;247.77;;;106.93;;
32501;SDS011;18952;52.516;13.460;2022-12-05T02:40:11;238.77;;;103.30;;
32501;SDS011;18952;52.516;13.460;2022-12-05T02:42:48;240.60;;;106.97;;
32501;SDS011;18952;52.516;13.460;2022-12-05T02:47:50;222.25;;;101.35;;
32501;SDS011;18952;52.516;13.460;2022-12-05T02:50:19;234.82;;;103.55;;
32501;SDS011;18952;52.516;13.460;2022-12-05T02:52:49;214.23;;;101.63;;
32501;SDS011;18952;52.516;13.460;2022-12-05T02:55:19;202.02;;;98.32;;
32501;SDS011;18952;52.516;13.460;2022-12-05T02:57:49;209.55;;;98.50;;
32501;SDS011;18952;52.516;13.460;2022-12-05T03:00:19;213.57;;;99.88;;
32501;SDS011;18952;52.516;13.460;2022-12-05T03:02:46;214.75;;;100.25;;
32501;SDS011;18952;52.516;13.460;2022-12-05T03:05:18;219.15;;;100.85;;
32501;SDS011;18952;52.516;13.460;2022-12-05T03:07:56;227.10;;;98.65;;
32501;SDS011;18952;52.516;13.460;2022-12-05T03:10:28;206.73;;;96.45;;
32501;SDS011;18952;52.516;13.460;2022-12-05T03:13:01;200.18;;;95.25;;
32501;SDS011;18952;52.516;13.460;2022-12-05T03:15:37;221.55;;;99.15;;
32501;SDS011;18952;52.516;13.460;2022-12-05T03:20:44;222.57;;;96.85;;
32501;SDS011;18952;52.516;13.460;2022-12-05T03:23:34;200.32;;;95.45;;
32501;SDS011;18952;52.516;13.460;2022-12-05T03:40:46;172.43;;;82.70;;
32501;SDS011;18952;52.516;13.460;2022-12-05T03:45:47;161.65;;;82.03;;
32501;SDS011;18952;52.516;13.460;2022-12-05T03:50:47;176.43;;;85.00;;
32501;SDS011;18952;52.516;13.460;2022-12-05T03:53:17;165.73;;;82.25;;
32501;SDS011;18952;52.516;13.460;2022-12-05T03:55:52;146.15;;;78.40;;
32501;SDS011;18952;52.516;13.460;2022-12-05T03:58:58;156.02;;;79.72;;
32501;SDS011;18952;52.516;13.460;2022-12-05T04:01:40;150.00;;;80.07;;
32501;SDS011;18952;52.516;13.460;2022-12-05T04:04:13;153.90;;;79.55;;
32501;SDS011;18952;52.516;13.460;2022-12-05T04:06:47;159.25;;;79.93;;
32501;SDS011;18952;52.516;13.460;2022-12-05T04:09:18;158.45;;;81.10;;
32501;SDS011;18952;52.516;13.460;2022-12-05T04:12:02;171.57;;;84.55;;
32501;SDS011;18952;52.516;13.460;2022-12-05T04:14:38;169.95;;;82.85;;
32501;SDS011;18952;52.516;13.460;2022-12-05T04:22:40;156.52;;;78.68;;
32501;SDS011;18952;52.516;13.460;2022-12-05T04:25:10;146.20;;;78.85;;
32501;SDS011;18952;52.516;13.460;2022-12-05T04:27:53;139.23;;;75.03;;
32501;SDS011;18952;52.516;13.460;2022-12-05T04:30:26;145.55;;;76.18;;
32501;SDS011;18952;52.516;13.460;2022-12-05T04:33:06;158.45;;;80.30;;
32501;SDS011;18952;52.516;13.460;2022-12-05T04:35:36;147.95;;;78.97;;
32501;SDS011;18952;52.516;13.460;2022-12-05T04:38:18;151.65;;;77.38;;
32501;SDS011;18952;52.516;13.460;2022-12-05T04:43:24;146.45;;;76.32;;
32501;SDS011;18952;52.516;13.460;2022-12-05T04:45:53;148.60;;;76.47;;
32501;SDS011;18952;52.516;13.460;2022-12-05T04:48:24;135.00;;;73.47;;
32501;SDS011;18952;52.516;13.460;2022-12-05T04:50:53;140.48;;;73.30;;
32501;SDS011;18952;52.516;13.460;2022-12-05T04:53:25;129.82;;;70.40;;
32501;SDS011;18952;52.516;13.460;2022-12-05T04:55:54;137.35;;;70.57;;
32501;SDS011;18952;52.516;13.460;2022-12-05T04:58:24;126.20;;;68.25;;
32501;SDS011;18952;52.516;13.460;2022-12-05T05:06:21;122.30;;;66.68;;
32501;SDS011;18952;52.516;13.460;2022-12-05T05:08:50;114.88;;;63.92;;
32501;SDS011;18952;52.516;13.460;2022-12-05T05:11:19;113.65;;;64.07;;
32501;SDS011;18952;52.516;13.460;2022-12-05T05:13:47;115.18;;;63.22;;
32501;SDS011;18952;52.516;13.460;2022-12-05T05:16:15;113.97;;;63.72;;
32501;SDS011;18952;52.516;13.460;2022-12-05T05:18:53;124.90;;;64.13;;
32501;SDS011;18952;52.516;13.460;2022-12-05T05:21:24;109.40;;;60.25;;
32501;SDS011;18952;52.516;13.460;2022-12-05T05:23:53;98.95;;;57.97;;
32501;SDS011;18952;52.516;13.460;2022-12-05T05:26:21;111.10;;;60.13;;
32501;SDS011;18952;52.516;13.460;2022-12-05T05:28:49;92.30;;;56.08;;
32501;SDS011;18952;52.516;13.460;2022-12-05T05:31:17;103.60;;;57.40;;
32501;SDS011;18952;52.516;13.460;2022-12-05T05:33:51;91.80;;;53.88;;
32501;SDS011;18952;52.516;13.460;2022-12-05T05:36:20;92.77;;;53.63;;
32501;SDS011;18952;52.516;13.460;2022-12-05T05:38:49;89.43;;;52.58;;
32501;SDS011;18952;52.516;13.460;2022-12-05T05:41:18;95.57;;;52.78;;
32501;SDS011;18952;52.516;13.460;2022-12-05T05:43:47;84.05;;;49.40;;
32501;SDS011;18952;52.516;13.460;2022-12-05T05:46:16;87.10;;;49.22;;
32501;SDS011;18952;52.516;13.460;2022-12-05T05:48:45;95.63;;;52.42;;
32501;SDS011;18952;52.516;13.460;2022-12-05T05:51:13;78.55;;;48.95;;
32501;SDS011;18952;52.516;13.460;2022-12-05T05:53:41;81.50;;;48.03;;
32501;SDS011;18952;52.516;13.460;2022-12-05T05:56:14;74.78;;;44.85;;
32501;SDS011;18952;52.516;13.460;2022-12-05T05:58:47;79.50;;;45.97;;
32501;SDS011;18952;52.516;13.460;2022-12-05T06:01:19;71.38;;;44.40;;
32501;SDS011;18952;52.516;13.460;2022-12-05T06:03:46;77.70;;;45.92;;
32501;SDS011;18952;52.516;13.460;2022-12-05T06:06:14;70.68;;;44.75;;
32501;SDS011;18952;52.516;13.460;2022-12-05T06:08:42;61.00;;;41.53;;
32501;SDS011;18952;52.516;13.460;2022-12-05T06:11:11;66.28;;;41.58;;
32501;SDS011;18952;52.516;13.460;2022-12-05T06:13:39;65.25;;;42.38;;
32501;SDS011;18952;52.516;13.460;2022-12-05T06:16:07;64.00;;;41.63;;
32501;SDS011;18952;52.516;13.460;2022-12-05T06:18:35;66.15;;;43.05;;
32501;SDS011;18952;52.516;13.460;2022-12-05T06:21:02;69.75;;;43.47;;
32501;SDS011;18952;52.516;13.460;2022-12-05T06:23:29;66.07;;;40.92;;
32501;SDS011;18952;52.516;13.460;2022-12-05T06:25:56;66.60;;;41.65;;
32501;SDS011;18952;52.516;13.460;2022-12-05T06:28:24;60.65;;;40.55;;
32501;SDS011;18952;52.516;13.460;2022-12-05T06:30:51;69.00;;;42.92;;
32501;SDS011;18952;52.516;13.460;2022-12-05T06:33:18;72.38;;;42.75;;
32501;SDS011;18952;52.516;13.460;2022-12-05T06:35:44;63.17;;;41.17;;
32501;SDS011;18952;52.516;13.460;2022-12-05T06:38:11;66.05;;;40.92;;
32501;SDS011;18952;52.516;13.460;2022-12-05T06:40:42;62.30;;;41.00;;
32501;SDS011;18952;52.516;13.460;2022-12-05T06:43:10;63.15;;;41.50;;
32501;SDS011;18952;52.516;13.460;2022-12-05T06:45:37;63.78;;;41.50;;
32501;SDS011;18952;52.516;13.460;2022-12-05T06:48:04;60.55;;;39.53;;
32501;SDS011;18952;52.516;13.460;2022-12-05T06:50:31;60.38;;;40.85;;
32501;SDS011;18952;52.516;13.460;2022-12-05T06:52:58;63.40;;;40.60;;
32501;SDS011;18952;52.516;13.460;2022-12-05T06:55:25;61.33;;;40.40;;
32501;SDS011;18952;52.516;13.460;2022-12-05T06:57:52;68.03;;;42.20;;
32501;SDS011;18952;52.516;13.460;2022-12-05T07:00:19;63.58;;;41.97;;
32501;SDS011;18952;52.516;13.460;2022-12-05T07:02:48;62.40;;;41.58;;
32501;SDS011;18952;52.516;13.460;2022-12-05T07:05:16;70.88;;;43.70;;
32501;SDS011;18952;52.516;13.460;2022-12-05T07:07:43;72.28;;;45.17;;
32501;SDS011;18952;52.516;13.460;2022-12-05T07:10:10;71.25;;;44.63;;
32501;SDS011;18952;52.516;13.460;2022-12-05T07:12:38;74.68;;;45.60;;
32501;SDS011;18952;52.516;13.460;2022-12-05T07:15:04;73.78;;;45.22;;
32501;SDS011;18952;52.516;13.460;2022-12-05T07:17:34;74.80;;;46.92;;
32501;SDS011;18952;52.516;13.460;2022-12-05T07:20:02;78.82;;;50.15;;
32501;SDS011;18952;52.516;13.460;2022-12-05T07:22:29;74.15;;;45.60;;
32501;SDS011;18952;52.516;13.460;2022-12-05T07:24:56;80.53;;;47.63;;
32501;SDS011;18952;52.516;13.460;2022-12-05T07:27:23;80.40;;;49.42;;
32501;SDS011;18952;52.516;13.460;2022-12-05T07:29:53;74.10;;;46.03;;
32501;SDS011;18952;52.516;13.460;2022-12-05T07:32:20;77.95;;;46.75;;
32501;SDS011;18952;52.516;13.460;2022-12-05T07:34:47;74.55;;;46.33;;
32501;SDS011;18952;52.516;13.460;2022-12-05T07:37:20;70.65;;;45.67;;
32501;SDS011;18952;52.516;13.460;2022-12-05T07:39:47;71.10;;;46.38;;
32501;SDS011;18952;52.516;13.460;2022-12-05T07:42:13;79.88;;;48.80;;
32501;SDS011;18952;52.516;13.460;2022-12-05T07:44:40;82.40;;;49.97;;
32501;SDS011;18952;52.516;13.460;2022-12-05T07:47:07;78.90;;;48.03;;
32501;SDS011;18952;52.516;13.460;2022-12-05T07:49:33;78.10;;;48.47;;
32501;SDS011;18952;52.516;13.460;2022-12-05T07:52:01;68.28;;;45.00;;
32501;SDS011;18952;52.516;13.460;2022-12-05T07:54:28;71.75;;;47.75;;
32501;SDS011;18952;52.516;13.460;2022-12-05T07:56:55;70.85;;;46.13;;
32501;SDS011;18952;52.516;13.460;2022-12-05T07:59:22;70.85;;;44.63;;
32501;SDS011;18952;52.516;13.460;2022-12-05T08:01:48;69.78;;;46.03;;
32501;SDS011;18952;52.516;13.460;2022-12-05T08:04:15;65.45;;;42.67;;
32501;SDS011;18952;52.516;13.460;2022-12-05T08:06:42;63.90;;;42.35;;
32501;SDS011;18952;52.516;13.460;2022-12-05T08:09:09;73.32;;;46.00;;
32501;SDS011;18952;52.516;13.460;2022-12-05T08:11:36;68.00;;;43.78;;
32501;SDS011;18952;52.516;13.460;2022-12-05T08:14:03;61.70;;;41.90;;
32501;SDS011;18952;52.516;13.460;2022-12-05T08:16:33;66.03;;;42.08;;
32501;SDS011;18952;52.516;13.460;2022-12-05T08:19:00;64.00;;;42.40;;
32501;SDS011;18952;52.516;13.460;2022-12-05T08:21:29;65.82;;;42.55;;
32501;SDS011;18952;52.516;13.460;2022-12-05T08:23:57;60.05;;;41.65;;
32501;SDS011;18952;52.516;13.460;2022-12-05T08:26:25;59.20;;;41.33;;
32501;SDS011;18952;52.516;13.460;2022-12-05T08:28:54;64.57;;;42.53;;
32501;SDS011;18952;52.516;13.460;2022-12-05T08:31:27;66.78;;;42.80;;
32501;SDS011;18952;52.516;13.460;2022-12-05T08:33:56;68.07;;;45.95;;
32501;SDS011;18952;52.516;13.460;2022-12-05T08:36:25;76.60;;;52.03;;
32501;SDS011;18952;52.516;13.460;2022-12-05T08:38:57;82.00;;;49.17;;
32501;SDS011;18952;52.516;13.460;2022-12-05T08:41:25;68.72;;;45.53;;
32501;SDS011;18952;52.516;13.460;2022-12-05T08:43:52;65.72;;;43.83;;
32501;SDS011;18952;52.516;13.460;2022-12-05T08:46:19;58.30;;;41.63;;
32501;SDS011;18952;52.516;13.460;2022-12-05T08:48:46;59.22;;;41.95;;
32501;SDS011;18952;52.516;13.460;2022-12-05T08:51:12;60.50;;;42.13;;
32501;SDS011;18952;52.516;13.460;2022-12-05T08:53:39;67.63;;;44.88;;
32501;SDS011;18952;52.516;13.460;2022-12-05T08:56:10;69.97;;;45.22;;
32501;SDS011;18952;52.516;13.460;2022-12-05T08:58:37;61.33;;;41.25;;
32501;SDS011;18952;52.516;13.460;2022-12-05T09:01:05;63.00;;;42.67;;
32501;SDS011;18952;52.516;13.460;2022-12-05T09:03:41;83.20;;;50.08;;
32501;SDS011;18952;52.516;13.460;2022-12-05T09:08:48;60.97;;;42.25;;
32501;SDS011;18952;52.516;13.460;2022-12-05T09:11:20;62.97;;;42.17;;
32501;SDS011;18952;52.516;13.460;2022-12-05T09:13:48;54.33;;;40.25;;
32501;SDS011;18952;52.516;13.460;2022-12-05T09:16:18;60.90;;;41.38;;
32501;SDS011;18952;52.516;13.460;2022-12-05T09:18:48;62.70;;;42.35;;
32501;SDS011;18952;52.516;13.460;2022-12-05T09:21:17;55.97;;;38.92;;
32501;SDS011;18952;52.516;13.460;2022-12-05T09:23:46;54.40;;;38.42;;
32501;SDS011;18952;52.516;13.460;2022-12-05T09:26:14;53.30;;;35.13;;
32501;SDS011;18952;52.516;13.460;2022-12-05T09:28:42;53.05;;;37.00;;
32501;SDS011;18952;52.516;13.460;2022-12-05T09:31:10;49.92;;;34.92;;
32501;SDS011;18952;52.516;13.460;2022-12-05T09:33:39;49.70;;;34.97;;
32501;SDS011;18952;52.516;13.460;2022-12-05T09:36:08;47.00;;;34.40;;
32501;SDS011;18952;52.516;13.460;2022-12-05T09:38:41;50.50;;;36.53;;
32501;SDS011;18952;52.516;13.460;2022-12-05T09:46:58;50.05;;;35.03;;
32501;SDS011;18952;52.516;13.460;2022-12-05T09:49:29;50.10;;;35.95;;
32501;SDS011;18952;52.516;13.460;2022-12-05T09:51:57;45.28;;;33.60;;
32501;SDS011;18952;52.516;13.460;2022-12-05T09:54:26;53.85;;;37.90;;
32501;SDS011;18952;52.516;13.460;2022-12-05T09:56:53;46.15;;;33.58;;
32501;SDS011;18952;52.516;13.460;2022-12-05T09:59:20;47.70;;;32.97;;
32501;SDS011;18952;52.516;13.460;2022-12-05T10:01:57;49.47;;;36.03;;
32501;SDS011;18952;52.516;13.460;2022-12-05T10:04:40;47.35;;;34.97;;
32501;SDS011;18952;52.516;13.460;2022-12-05T10:15:41;45.95;;;34.92;;
32501;SDS011;18952;52.516;13.460;2022-12-05T10:24:22;57.53;;;38.42;;
32501;SDS011;18952;52.516;13.460;2022-12-05T10:26:58;50.88;;;37.90;;
32501;SDS011;18952;52.516;13.460;2022-12-05T10:29:34;53.30;;;37.55;;
32501;SDS011;18952;52.516;13.460;2022-12-05T10:34:42;48.50;;;36.58;;
32501;SDS011;18952;52.516;13.460;2022-12-05T10:39:40;53.30;;;36.67;;
32501;SDS011;18952;52.516;13.460;2022-12-05T10:42:09;53.05;;;36.90;;
32501;SDS011;18952;52.516;13.460;2022-12-05T10:44:40;59.00;;;38.22;;
32501;SDS011;18952;52.516;13.460;2022-12-05T10:47:07;58.80;;;40.00;;
32501;SDS011;18952;52.516;13.460;2022-12-05T10:49:35;64.75;;;39.38;;
32501;SDS011;18952;52.516;13.460;2022-12-05T10:52:03;49.47;;;36.63;;
32501;SDS011;18952;52.516;13.460;2022-12-05T10:54:31;48.03;;;35.13;;
32501;SDS011;18952;52.516;13.460;2022-12-05T10:59:53;54.55;;;37.95;;
32501;SDS011;18952;52.516;13.460;2022-12-05T11:04:55;50.65;;;36.70;;
32501;SDS011;18952;52.516;13.460;2022-12-05T11:12:59;53.50;;;39.47;;
32501;SDS011;18952;52.516;13.460;2022-12-05T11:15:29;57.42;;;38.78;;
32501;SDS011;18952;52.516;13.460;2022-12-05T11:17:58;55.17;;;37.38;;
32501;SDS011;18952;52.516;13.460;2022-12-05T11:20:51;59.63;;;40.47;;
32501;SDS011;18952;52.516;13.460;2022-12-05T11:23:26;53.97;;;37.83;;
32501;SDS011;18952;52.516;13.460;2022-12-05T11:25:55;58.08;;;38.55;;
32501;SDS011;18952;52.516;13.460;2022-12-05T11:28:24;67.60;;;41.80;;
32501;SDS011;18952;52.516;13.460;2022-12-05T11:31:04;56.67;;;37.42;;
32501;SDS011;18952;52.516;13.460;2022-12-05T11:33:38;60.65;;;40.97;;
32501;SDS011;18952;52.516;13.460;2022-12-05T11:38:35;54.80;;;39.35;;
32501;SDS011;18952;52.516;13.460;2022-12-05T11:55:17;71.93;;;43.08;;
32501;SDS011;18952;52.516;13.460;2022-12-05T12:00:51;68.38;;;44.15;;
32501;SDS011;18952;52.516;13.460;2022-12-05T12:12:01;72.63;;;46.55;;
32501;SDS011;18952;52.516;13.460;2022-12-05T12:14:42;76.15;;;46.53;;
32501;SDS011;18952;52.516;13.460;2022-12-05T12:19:42;75.78;;;47.50;;
32501;SDS011;18952;52.516;13.460;2022-12-05T12:22:28;68.75;;;45.75;;
32501;SDS011;18952;52.516;13.460;2022-12-05T12:25:25;73.28;;;47.65;;
32501;SDS011;18952;52.516;13.460;2022-12-05T12:31:15;79.80;;;48.83;;
32501;SDS011;18952;52.516;13.460;2022-12-05T12:36:55;73.78;;;48.83;;
32501;SDS011;18952;52.516;13.460;2022-12-05T12:40:00;77.47;;;50.00;;
32501;SDS011;18952;52.516;13.460;2022-12-05T12:45:04;79.65;;;48.88;;
32501;SDS011;18952;52.516;13.460;2022-12-05T12:50:52;82.75;;;51.45;;
32501;SDS011;18952;52.516;13.460;2022-12-05T13:06:30;87.70;;;52.03;;
32501;SDS011;18952;52.516;13.460;2022-12-05T13:09:05;98.80;;;56.53;;
32501;SDS011;18952;52.516;13.460;2022-12-05T13:11:53;84.72;;;52.85;;
32501;SDS011;18952;52.516;13.460;2022-12-05T13:14:24;85.15;;;50.90;;
32501;SDS011;18952;52.516;13.460;2022-12-05T13:16:53;97.03;;;55.50;;
32501;SDS011;18952;52.516;13.460;2022-12-05T13:21:54;99.07;;;54.47;;
32501;SDS011;18952;52.516;13.460;2022-12-05T13:24:26;98.05;;;54.78;;
32501;SDS011;18952;52.516;13.460;2022-12-05T13:26:56;94.63;;;56.47;;
32501;SDS011;18952;52.516;13.460;2022-12-05T13:29:33;112.68;;;58.55;;
32501;SDS011;18952;52.516;13.460;2022-12-05T13:32:03;116.45;;;61.67;;
32501;SDS011;18952;52.516;13.460;2022-12-05T13:34:35;103.07;;;57.28;;
32501;SDS011;18952;52.516;13.460;2022-12-05T13:37:33;112.13;;;59.30;;
32501;SDS011;18952;52.516;13.460;2022-12-05T13:40:01;111.93;;;58.70;;
32501;SDS011;18952;52.516;13.460;2022-12-05T13:42:28;100.10;;;56.55;;
32501;SDS011;18952;52.516;13.460;2022-12-05T13:44:56;108.60;;;59.92;;
32501;SDS011;18952;52.516;13.460;2022-12-05T13:50:35;102.63;;;58.03;;
32501;SDS011;18952;52.516;13.460;2022-12-05T14:09:49;129.60;;;66.07;;
32501;SDS011;18952;52.516;13.460;2022-12-05T14:17:23;122.13;;;64.85;;
32501;SDS011;18952;52.516;13.460;2022-12-05T14:34:12;130.63;;;64.43;;
32501;SDS011;18952;52.516;13.460;2022-12-05T14:39:47;142.93;;;69.78;;
32501;SDS011;18952;52.516;13.460;2022-12-05T14:45:43;163.25;;;75.88;;
32501;SDS011;18952;52.516;13.460;2022-12-05T14:48:03;160.55;;;73.82;;
32501;SDS011;18952;52.516;13.460;2022-12-05T14:50:51;151.85;;;73.57;;
32501;SDS011;18952;52.516;13.460;2022-12-05T14:53:21;168.45;;;74.13;;
32501;SDS011;18952;52.516;13.460;2022-12-05T14:55:57;177.02;;;76.15;;
32501;SDS011;18952;52.516;13.460;2022-12-05T14:58:49;161.85;;;74.28;;
32501;SDS011;18952;52.516;13.460;2022-12-05T15:01:38;177.15;;;77.47;;
32501;SDS011;18952;52.516;13.460;2022-12-05T15:04:22;181.10;;;76.55;;
32501;SDS011;18952;52.516;13.460;2022-12-05T15:07:09;185.93;;;82.28;;
32501;SDS011;18952;52.516;13.460;2022-12-05T15:10:00;188.20;;;78.90;;
32501;SDS011;18952;52.516;13.460;2022-12-05T15:12:48;180.32;;;80.20;;
32501;SDS011;18952;52.516;13.460;2022-12-05T15:18:08;202.30;;;81.77;;
32501;SDS011;18952;52.516;13.460;2022-12-05T15:20:48;194.27;;;79.93;;
32501;SDS011;18952;52.516;13.460;2022-12-05T15:26:14;200.88;;;81.78;;
32501;SDS011;18952;52.516;13.460;2022-12-05T15:29:05;212.02;;;81.78;;
32501;SDS011;18952;52.516;13.460;2022-12-05T15:31:45;218.38;;;81.57;;
32501;SDS011;18952;52.516;13.460;2022-12-05T15:39:57;209.35;;;79.88;;
32501;SDS011;18952;52.516;13.460;2022-12-05T15:42:29;222.10;;;81.03;;
32501;SDS011;18952;52.516;13.460;2022-12-05T15:47:38;241.43;;;84.28;;
32501;SDS011;18952;52.516;13.460;2022-12-05T15:50:24;264.38;;;108.88;;
32501;SDS011;18952;52.516;13.460;2022-12-05T15:58:16;243.10;;;83.70;;
32501;SDS011;18952;52.516;13.460;2022-12-05T16:01:10;208.15;;;80.85;;
32501;SDS011;18952;52.516;13.460;2022-12-05T16:06:30;234.75;;;84.40;;
32501;SDS011;18952;52.516;13.460;2022-12-05T16:09:13;208.93;;;79.43;;
32501;SDS011;18952;52.516;13.460;2022-12-05T16:11:58;226.32;;;82.00;;
32501;SDS011;18952;52.516;13.460;2022-12-05T16:14:33;230.80;;;83.32;;
32501;SDS011;18952;52.516;13.460;2022-12-05T16:17:22;237.35;;;83.72;;
32501;SDS011;18952;52.516;13.460;2022-12-05T16:19:49;218.82;;;84.15;;
32501;SDS011;18952;52.516;13.460;2022-12-05T16:22:21;255.10;;;85.25;;
32501;SDS011;18952;52.516;13.460;2022-12-05T16:24:58;225.90;;;86.40;;
32501;SDS011;18952;52.516;13.460;2022-12-05T16:27:36;262.52;;;85.88;;
32501;SDS011;18952;52.516;13.460;2022-12-05T16:32:39;261.35;;;88.18;;
32501;SDS011;18952;52.516;13.460;2022-12-05T16:38:06;202.18;;;84.40;;
32501;SDS011;18952;52.516;13.460;2022-12-05T16:45:43;250.68;;;84.85;;
32501;SDS011;18952;52.516;13.460;2022-12-05T16:48:18;191.88;;;77.88;;
32501;SDS011;18952;52.516;13.460;2022-12-05T16:50:49;240.00;;;83.88;;
32501;SDS011;18952;52.516;13.460;2022-12-05T16:53:18;284.85;;;89.53;;
32501;SDS011;18952;52.516;13.460;2022-12-05T16:55:47;293.77;;;88.28;;
32501;SDS011;18952;52.516;13.460;2022-12-05T16:58:17;251.25;;;84.43;;
32501;SDS011;18952;52.516;13.460;2022-12-05T17:00:47;252.07;;;86.25;;
32501;SDS011;18952;52.516;13.460;2022-12-05T17:03:14;254.32;;;85.57;;
32501;SDS011;18952;52.516;13.460;2022-12-05T17:06:00;289.98;;;90.55;;
32501;SDS011;18952;52.516;13.460;2022-12-05T17:08:27;256.58;;;89.78;;
32501;SDS011;18952;52.516;13.460;2022-12-05T17:10:54;262.45;;;87.65;;
32501;SDS011;18952;52.516;13.460;2022-12-05T17:13:21;276.35;;;88.22;;
32501;SDS011;18952;52.516;13.460;2022-12-05T17:15:48;226.38;;;86.82;;
32501;SDS011;18952;52.516;13.460;2022-12-05T17:18:15;246.70;;;86.22;;
32501;SDS011;18952;52.516;13.460;2022-12-05T17:20:44;341.00;;;87.68;;
32501;SDS011;18952;52.516;13.460;2022-12-05T17:23:13;273.70;;;92.15;;
32501;SDS011;18952;52.516;13.460;2022-12-05T17:25:42;202.13;;;84.18;;
32501;SDS011;18952;52.516;13.460;2022-12-05T17:28:20;262.00;;;89.90;;
32501;SDS011;18952;52.516;13.460;2022-12-05T17:30:47;257.30;;;87.65;;
32501;SDS011;18952;52.516;13.460;2022-12-05T17:33:14;264.85;;;89.75;;
32501;SDS011;18952;52.516;13.460;2022-12-05T17:35:43;326.25;;;94.20;;
32501;SDS011;18952;52.516;13.460;2022-12-05T17:38:10;227.15;;;85.15;;
32501;SDS011;18952;52.516;13.460;2022-12-05T17:40:38;237.45;;;84.00;;
32501;SDS011;18952;52.516;13.460;2022-12-05T17:43:05;252.90;;;87.38;;
32501;SDS011;18952;52.516;13.460;2022-12-05T17:45:32;240.95;;;85.13;;
32501;SDS011;18952;52.516;13.460;2022-12-05T17:47:59;272.42;;;90.38;;
32501;SDS011;18952;52.516;13.460;2022-12-05T17:50:26;262.48;;;89.40;;
32501;SDS011;18952;52.516;13.460;2022-12-05T17:52:53;267.23;;;92.85;;
32501;SDS011;18952;52.516;13.460;2022-12-05T17:55:30;274.45;;;92.22;;
32501;SDS011;18952;52.516;13.460;2022-12-05T17:57:57;257.35;;;92.30;;
32501;SDS011;18952;52.516;13.460;2022-12-05T18:00:23;245.02;;;95.55;;
32501;SDS011;18952;52.516;13.460;2022-12-05T18:02:50;264.25;;;94.07;;
32501;SDS011;18952;52.516;13.460;2022-12-05T18:05:17;275.15;;;137.90;;
32501;SDS011;18952;52.516;13.460;2022-12-05T18:07:44;288.27;;;130.43;;
32501;SDS011;18952;52.516;13.460;2022-12-05T18:10:12;254.68;;;92.68;;
32501;SDS011;18952;52.516;13.460;2022-12-05T18:12:41;222.55;;;85.72;;
32501;SDS011;18952;52.516;13.460;2022-12-05T18:15:08;247.27;;;91.70;;